National Oceanic Atmosphere Administration National Weather Service Headquarters National Weather Service Headquarters
NOAA logo WFO Anchorage Scalable transition graphic NWS logo
Transition from title bar to navgation bar   Aviation Weather 11 AKST 
blankspace Home   |   Mobile   |   Social Media   |   Mesonet   |   Surface Map   |   Radar   |   Submit Storm Reports   |   News =20 GMT 

LocalForecast by City, St or Zip Code

spacer

Forecasts/Products
  Public
  Forecast Discussion
    - With Glossary
  Aviation
  Marine
  Hydrology(RFC)
  Rivers & Lakes AHPS
  Ice Desk
  TV Weather
  Fire Weather
  Avalanche
  Travel 511
  Graphical
  xml logo RSS Feeds
  Marine FTPMail

spacer

Data
  Mesonet
  Model Graphics
  Local Model
  Observations
  Marine Obs
  Satellite/Radar
  Vent Factor
  Soaring Index
  Weather Links

spacer

Climate
  PAFC Climate
  Interactive Climate
  PAFC Records
  Local
  National
  More

spacer

Outreach
  About Us
  Community Outreach
  Kids' Page
  Tour/Speaker Request
  Weather Classroom
  Social Media

spacer

Reports
  COOP Observers
  Local Storm Reports
  Spotter Page
  Submit a Storm Report

spacer

Miscellaneous
  Archived Alaska Weather Stories
  Student Career Opportunities
  Research Papers

spacer

Print Friendly/
Low Bandwidth

  Public Forecasts
  Marine Forecasts

spacer

Contact Us
  mailto pafcweb

spacer

Facebook Follow the National Weather Service in Alaska on Twitter
USA.gov is the U.S. government's official web portal to all federal, state and local government web resources and services.


 ICAO ID:   AAWU Graphics

Internet access to TAFs and METAR observations is for planning purposes only. We can not guarantee the timeliness of internet products. Before flying please get a formal pilot briefing (1-800-992-7433) and ALWAYS file a Flight Plan!Pilot briefings are provided to licensed aircraft pilots, ONLY! Others may not use the above number to obtain weather information.

Check out the Key to TAFs and METARs for help with decoding the information.

A 12 hour summary of TAFs can be found here.

PANC TAF
PANC 061736Z 0618/0724  18003KT P6SM BCFG FEW001 BKN035
      TEMPO 0618/0619 4SM BR SCT001 BKN030
     FM062000 17004KT P6SM SCT040 BKN120
     FM070200 16012G18KT P6SM BKN060
     FM070500 17015G22KT P6SM -RA BKN035
     FM070900 17012G20KT 2SM -SN SCT010 OVC020
     FM071700 19018G26KT P6SM VCSH SCT020 BKN035
     FM072100 18014G22KT P6SM SCT035 BKN070=


METAR PANC 061953Z 19008KT 10SM FEW005 BKN031 BKN120 02/M02 A3016 RMK
     AO2 SLP215 4/001 T00221022=
METAR PANC 061853Z 20007KT 10SM FEW005 BKN031 BKN120 02/M02 A3016 RMK
     AO2 SLP215 4/001 T00221017=
METAR PANC 061853Z 20007KT 10SM FEW005 BKN031 BKN120 02/M02 A3016=
PANC 061753Z 19005KT 10SM FEW005 BKN031 BKN120 02/M01 A3015 RMK
     AO2 SLP212 4/001 T00221006 10022 20000 53012=
METAR PANC 061753Z 19005KT 10SM FEW005 BKN031 BKN120 02/M01 A3015=
METAR PANC 061653Z 20004KT 10SM BCFG FEW001 BKN036 BKN120 02/M01 A3014
     RMK AO2 SLP207 VIS N-NE 1 T00171006=
METAR PANC 061653Z 20004KT 10SM BCFG FEW001 BKN036 BKN120 02/M01
     A3014=
PANC 061646Z 18003KT 10SM BCFG FEW001 BKN036 BKN120 01/M01 A3013
     RMK AO2 VIS N-NE 1=
PANC 061646Z 18003KT 10SM BCFG FEW001 BKN036 BKN120 01/M01 A3013=
PANC 061633Z 00000KT 1/4SM R07R/P6000FT FG SCT001 BKN036 BKN120
     01/M01 A3013 RMK AO2 FG SCT000=
PANC 061633Z 00000KT 1/4SM R07R/P6000FT FG SCT001 BKN036 BKN120
01/M01 A3013=
PANC 061627Z 00000KT 3/4SM R07R/P6000FT BR FEW001 BKN036 BKN120
     01/M01 A3013 RMK AO2 BR BKN000=
PANC 061627Z 00000KT 3/4SM R07R/P6000FT BR FEW001 BKN036 BKN120
01/M01 A3013=
PANC 061619Z 18003KT 5SM BR BCFG FEW001 BKN036 BKN120 01/M01 A3013
     RMK AO2 VIS W 2=
PANC 061619Z 18003KT 5SM BR BCFG FEW001 BKN036 BKN120 01/M01 A3013=
PANC 061603Z COR 19003KT 10SM MIFG FEW002 BKN038 BKN120 01/M01
     A3012 RMK AO2 MIFG E=
PANC 061603Z COR 19003KT 10SM MIFG FEW002 BKN038 BKN120 01/M01
A3012=


National Weather Service
Anchorage Forecast Office
6930 Sand Lake Road
Anchorage, Ak 99502
(907) 266-5105 M-F/7-5pm
About Us
Career Opportunities
Glossary
Disclaimer
Privacy Policy
Credits
Alaska Weather Information Line:
1-800-472-0391